TAF AMD UIUU 260551Z 2605/2706 31006G12MPS 9999 SCT040
TEMPO 2606/2614 25005G10MPS
BECMG 2614/2616 25003MPS
From batch tds/tafs/production/2023/3/26/h06_m00_tafs.cache.xml
Issued (about 1 year ago)
Forecasts
2605/2614 31012G23KT P6SM SCT4000

---
fcst_time_to: '2023-03-26T14:00:00Z'
wind_gust_kt: '23'
sky_condition:
- sky_cover: SCT
  cloud_base_ft_agl: '4000'
wind_speed_kt: '12'
fcst_time_from: '2023-03-26T05:00:00Z'
wind_dir_degrees: '310'
visibility_statute_mi: '6.21'

TEMPO 2606/2614 25010G19KT

---
fcst_time_to: '2023-03-26T14:00:00Z'
wind_gust_kt: '19'
wind_speed_kt: '10'
fcst_time_from: '2023-03-26T06:00:00Z'
change_indicator: TEMPO
wind_dir_degrees: '250'

BECMG 2616/2706 25006KT P6SM SCT4000

---
fcst_time_to: '2023-03-27T06:00:00Z'
sky_condition:
- sky_cover: SCT
  cloud_base_ft_agl: '4000'
time_becoming: '2023-03-26T16:00:00Z'
wind_speed_kt: '6'
fcst_time_from: '2023-03-26T14:00:00Z'
change_indicator: BECMG
wind_dir_degrees: '250'
visibility_statute_mi: '6.21'

talk